MP3/FLAC

‹ prev 2022-08-19 next › 832 release(s) · 91,27 GB · filter: day
Release Group Size Files Date ↓
Ron_Flatter-Poseidon_EP-(TRAUMV268)-WEBFLAC-2022-PTC PTC 128,94 MB 7 2022-08-19
Ron_Flatter-Glorylooper-(RBR228)-WEBFLAC-2022-PTC PTC 86,69 MB 6 2022-08-19
Hoki--Crash-(TYP009)-WEB-2020-BABAS BABAS 40,48 MB 8 2022-08-19
Hoki--Strangest_Of_Us_All-(TYP005)-WEB-2019-BABAS BABAS 119,36 MB 15 2022-08-19
Hoki--The_Walls_Can_Talk-(TYP010)-WEB-2020-BABAS BABAS 103,79 MB 12 2022-08-19
Hoki--Today-(TYP011)-WEB-2020-BABAS BABAS 97,37 MB 15 2022-08-19
VA-Yggdrasounds_III-(YGGCD006)-WEB-2022-BABAS BABAS 170,51 MB 13 2022-08-19
Austin-Step_NClub-CDR-FLAC-200X-RAGEFLAC RAGEFLAC 252,78 MB 19 2022-08-19
Kolosmo--Life_Unfolding-(54)-WEB-2022-BABAS BABAS 73,02 MB 8 2022-08-19
VA-18_Wit_A_Bullet-CD-FLAC-1999-RAGEFLAC RAGEFLAC 493,57 MB 22 2022-08-19
ModelFluxX--Wavtransformer-(OVNIEP507)-WEB-2022-BABAS BABAS 66,98 MB 8 2022-08-19
Nomad_Aliens--Voyager_Planetary-WEB-2022-BABAS BABAS 33,59 MB 6 2022-08-19
Psydewise--Mandelbrot_Sequence-(55)-WEB-2022-BABAS BABAS 76,31 MB 9 2022-08-19
VA-Higher_Power-(PTL0053B)-WEB-2022-BABAS BABAS 173,15 MB 14 2022-08-19
VA-Ancient_Masters_(Compiled_by_X-Side)-(QS026)-WEB-2022-BABAS BABAS 152,57 MB 13 2022-08-19
VA-Goa_Vol_78_(Compiled_by_Psykinetic)-(YSEDCD025)-WEB-2022-BABAS BABAS 324,24 MB 22 2022-08-19
Austin-Step_NClub-CDR-200X-RAGEMP3 RAGEMP3 85,91 MB 19 2022-08-19
VA-Heart_Of_Trance_(A_Tribute_To_Eyal_Yankovich)-(HMD185)-WEB-2022-BABAS BABAS 221,52 MB 16 2022-08-19
Hoki--None_Of_Us_Will_Ever_Be_The_Same-(TYP027)-WEB-2021-BABAS BABAS 105,25 MB 16 2022-08-19
Hoki--Three_(Death_On_The_Balcony_Remix)-(TYP030)-WEB-2022-BABAS BABAS 12,80 MB 5 2022-08-19
Maximalism--Glimpse-(NWS011)-WEB-2018-BABAS BABAS 83,76 MB 9 2022-08-19
Yuzostate-New_Life-WEB-2022-KNOWN KNOWN 49,20 MB 16 2022-08-19
Yarni--Voiski-(NWS009)-WEB-2018-BABAS BABAS 76,64 MB 9 2022-08-19
VA-The_Sound_V_2_(Mixed_by_Kered)-(LOOTMIX002)-WEB-2017-BABAS BABAS 199,05 MB 16 2022-08-19
Pete_Tong_-_Radio1-SAT-08-19-2022-TALiON TALiON 222,39 MB 4 2022-08-19
The_Dee_Schury_Orchestra-The_Soul_Aquarium-WEB-2022-KNOWN KNOWN 52,82 MB 14 2022-08-19
Nordfold_x_Bremer--Yano-(NWS008)-WEB-2018-BABAS BABAS 48,54 MB 7 2022-08-19
Padre--Bring_You_Back_(Luis_Leon_Re-Interpretation)-(NWS027V3)-SINGLE-WEB-2021-BABAS BABAS 13,78 MB 5 2022-08-19
Quatri--Left_Undone-(NWSBC01)-WEB-2020-BABAS_INT BABAS_INT 165,67 MB 14 2022-08-19
Sower--Mumbles-(NWS013)-WEB-2018-BABAS BABAS 99,09 MB 10 2022-08-19
Timo_Chinala--Inversion-(NWS017V1)-WEB-2019-BABAS BABAS 65,58 MB 9 2022-08-19
VA-The_Goods_Vol_3-(LOOTREC034)-WEB-2021-BABAS BABAS 176,14 MB 15 2022-08-19
Modulo--Find_The_Truth-(NWS004)-WEB-2017-BABAS BABAS 92,53 MB 9 2022-08-19
Lucefora--Atman-(LOOTREC035)-WEB-2021-BABAS BABAS 212,57 MB 16 2022-08-19
VA-The_Sound_V_5_(Mixed_by_Kered)-(LOOTMIX005)-WEB-2020-BABAS BABAS 179,34 MB 16 2022-08-19
VA-The_Sound_V_3_(Mixed_by_Robin_Fett)-(LOOTMIX003)-WEB-2018-BABAS BABAS 193,24 MB 16 2022-08-19
Smooth_Jazz_All_Stars-Smooth_Jazz_Tribute_To_Frankie_Beverly_and_Maze-WEB-2012-KNOWN KNOWN 99,03 MB 14 2022-08-19
Smooth_Jazz_All_Stars-Smooth_Jazz_Tribute_To_Frankie_Beverly_and_Maze-WEB-2007-KNOWN KNOWN 89,17 MB 14 2022-08-19
Makaton--Lustrate-(MAK060)-WEB-2019-BABAS BABAS 49,22 MB 7 2022-08-19
Manare--Quartz__Down_To_Dis-(CCB006)-WEB-2012-BABAS BABAS 30,98 MB 6 2022-08-19
Metropolitan_Soul_Museum--Happy_Valleys-(M33)-WEB-2020-BABAS BABAS 63,35 MB 8 2022-08-19
Sista-Brand_New-VLS-FLAC-1994-THEVOiD THEVOiD 304,71 MB 8 2022-08-19
MiG-29--Sierrafunk-(MINT002)-WEB-2020-BABAS BABAS 71,81 MB 9 2022-08-19
Myles_Serge--Inside_The_Box-(BSRX001)-WEB-2018-BABAS BABAS 46,63 MB 7 2022-08-19
NSDOS--Female_Guest_List_EP-(CCB12019)-WEB-2015-BABAS BABAS 64,97 MB 10 2022-08-19
O_Phase--Tunnel_Vision__Internal_Conflict-(TOKEN52)-WEB-2015-BABAS BABAS 40,13 MB 6 2022-08-19
O_Phase--Versions_II-(PH4532)-WEB-2016-BABAS BABAS 54,11 MB 8 2022-08-19
Ortella--Mad_In_Lyon_EP-(RUTI005)-WEB-2014-BABAS BABAS 61,35 MB 8 2022-08-19
Shlomo--Rechaim_(Remixed)-(BSRX005)-WEB-2018-BABAS BABAS 61,05 MB 8 2022-08-19
Spherical_Coordinates--Kinematics_Equations_EP-(TOKEN45)-WEB-2014-BABAS BABAS 60,06 MB 8 2022-08-19